Lidderdale, IA (51452)

10:11 AM CST on February 23, 2018 (GMT -0600)
Onken Ag Services | | Change Station
Active Advisory: Winter Storm Watch

Elev 1217 ft 42.15 °N, 94.81 °W | Updated 7 minutes ago

Partly Cloudy
Partly Cloudy
21.8 °F
Feels Like 12 °F
N
9.0
Wind Variable Wind from WNW
Gusts 16.0 mph

Today
High -- | Low -- °F
--% Chance of Precip.
Yesterday
High -- | Low -- °F
Precip. -- in
Pressure 30.23 in
Visibility 6.0 miles
Clouds Scattered Clouds 700 ft
Windchill 12 °F
Dew Point 20 °F
Humidity 92%
Rainfall 0.00 in
Snow Depth Not available.
7:03 AM 6:01 PM
First Quarter, 54% visible
METAR KCIN 231555Z AUTO 31010KT 6SM SCT007 M05/M06 A3023 RMK AO2
Pressure 30.23 in
Visibility 6.0 miles
Clouds Scattered Clouds 700 ft
Windchill 12 °F
Dew Point 20 °F
Humidity 92%
Rainfall 0.00 in
Snow Depth Not available.
7:03 AM 6:01 PM
First Quarter, 54% visible
METAR KCIN 231555Z AUTO 31010KT 6SM SCT007 M05/M06 A3023 RMK AO2

Get Your Daily Forecast Email!

Thanks for signing up!

Be on the lookout for a verification email in your inbox.

You'll start receiving severe weather alerts in your inbox..

×

10-Day Weather Forecast

Almanac

Astronomy

Feb. 23, 2018 Rise Set
Actual Time
Civil Twilight
Nautical Twilight
Astronomical Twilight
Moon
Length of Visible Light
Length of Day
Tomorrow will be .
, % of the Moon is Illuminated

Today's Extremes

State Highs State Lows

Community

WunderPhotos

Category 6

Welcome to Category 6. This is the collective home for Weather Underground's featured writeups by Dr. Jeff Masters (right), Bob Henson (left), Chris Burt, and other regular contributors.

Nearby

Air Quality

  Air Quality AQ Index Pollutant
Not available.

Snow Depth

Station Depth Elevation

Earthquake Activity

City Distance Mag. Time & Date
Minimum magnitude displayed is 2.5.

Coastal Water Temperatures

Place Temperature

Stations

Nearby Weather Stations

Station Location Temp. Windchill Dew Point Humidity Wind Precip. Elev Updated Type
                   

Watches & Warnings

Winter Storm Watch
Issued: 6:08 AM CST Feb. 23, 2018 – National Weather Service

... Winter Storm Watch remains in effect from Saturday morning
through late Saturday night...

* what... total snow accumulations of 4 to 7 inches, with localized
amounts up to 8 inches.

* Where... west central into northern Iowa

* when... Saturday morning through late Saturday night.

* Additional details... significant reductions in visibility are
possible, with slick, snow-covered roads. The combination of
reduced visibilities and slick roads is expected to lead to
hazardous travel conditions.

Precautionary/preparedness actions...

A Winter Storm Watch means there is potential for significant
snow, sleet or ice accumulations that may impact travel. Continue
to monitor the latest forecasts.



For more information from the National Weather Service visit
http://weather.Gov/desmoines